createdAt,value
2022-11-03T00:00:13.029Z,101237.03
2022-11-03T00:01:15.372Z,101233.16
2022-11-03T00:02:18.449Z,101228.03
2022-11-03T00:03:20.425Z,101230.88
2022-11-03T00:04:23.962Z,101235.34
2022-11-03T00:05:44.458Z,101232.03
2022-11-03T00:06:49.415Z,101227.06
2022-11-03T00:07:51.333Z,101226.41
2022-11-03T00:08:54.251Z,101227.59
2022-11-03T00:09:57.489Z,101226.94
2022-11-03T00:11:04.678Z,101220.13
2022-11-03T00:12:08.270Z,101221.47
2022-11-03T00:13:10.215Z,101223.47
2022-11-03T00:14:14.953Z,101222.00
2022-11-03T00:15:16.810Z,101217.84
2022-11-03T00:16:19.731Z,101218.03
2022-11-03T00:17:21.685Z,101233.50
2022-11-03T00:18:24.597Z,101215.06
2022-11-03T00:19:26.467Z,101216.25
2022-11-03T00:20:29.342Z,101210.25
2022-11-03T00:21:32.109Z,101213.28
2022-11-03T00:22:35.026Z,101201.31
2022-11-03T00:23:38.902Z,101205.00
2022-11-03T00:24:41.703Z,101196.34
2022-11-03T00:25:45.005Z,101202.00
2022-11-03T00:26:47.853Z,101193.38
2022-11-03T00:27:54.934Z,101196.22
2022-11-03T00:29:00.526Z,101192.72
2022-11-03T00:30:02.466Z,101191.06
2022-11-03T00:31:09.867Z,101190.22
2022-11-03T00:32:11.747Z,101192.72
2022-11-03T00:33:14.652Z,101188.22
2022-11-03T00:34:16.565Z,101190.03
2022-11-03T00:35:19.447Z,101186.53
2022-11-03T00:36:23.614Z,101190.22
2022-11-03T00:37:26.504Z,101190.03
2022-11-03T00:38:29.299Z,101184.72
2022-11-03T00:39:32.536Z,101190.03
2022-11-03T00:40:34.617Z,101191.69
2022-11-03T00:41:39.745Z,101187.22
2022-11-03T00:42:41.672Z,101185.56
2022-11-03T00:43:44.587Z,101194.34
2022-11-03T00:44:46.480Z,101187.38
2022-11-03T00:45:49.473Z,101188.41
2022-11-03T00:46:52.389Z,101190.22
2022-11-03T00:48:15.091Z,101191.22
2022-11-03T00:49:17.992Z,101189.56
2022-11-03T00:50:19.874Z,101185.09
2022-11-03T00:51:24.242Z,101194.03
2022-11-03T00:52:26.152Z,101182.59
2022-11-03T00:53:29.569Z,101188.72
2022-11-03T00:54:32.460Z,101184.25
2022-11-03T00:55:34.316Z,101179.75
2022-11-03T00:56:39.744Z,101179.94
2022-11-03T00:57:41.619Z,101178.91
2022-11-03T00:58:45.527Z,101179.09
2022-11-03T00:59:47.380Z,101176.25
2022-11-03T01:00:50.304Z,101175.41
2022-11-03T01:01:52.416Z,101170.09
2022-11-03T01:02:55.370Z,101171.78
2022-11-03T01:04:17.041Z,101173.41
2022-11-03T01:05:37.232Z,101177.91
2022-11-03T01:06:50.058Z,101167.25
2022-11-03T01:07:54.267Z,101159.13
2022-11-03T01:08:58.851Z,101167.75
2022-11-03T01:10:01.886Z,101170.41
2022-11-03T01:11:27.570Z,101164.91
2022-11-03T01:12:32.197Z,101165.56
2022-11-03T01:13:34.418Z,101168.06
2022-11-03T01:14:40.408Z,101162.72
2022-11-03T01:15:42.607Z,101164.06
2022-11-03T01:16:45.520Z,101164.06
2022-11-03T01:17:47.385Z,101162.06
2022-11-03T01:18:50.567Z,101160.06
2022-11-03T01:19:54.062Z,101157.22
2022-11-03T01:20:56.652Z,101161.34
2022-11-03T01:21:59.576Z,101163.00
2022-11-03T01:23:01.486Z,101155.19
2022-11-03T01:24:05.401Z,101157.34
2022-11-03T01:25:08.012Z,101160.66
2022-11-03T01:26:13.039Z,101158.81
2022-11-03T01:27:19.014Z,101158.97
2022-11-03T01:28:22.261Z,101156.63
2022-11-03T01:29:25.219Z,101154.63
2022-11-03T01:30:27.097Z,101145.63
2022-11-03T01:31:30.328Z,101156.13
2022-11-03T01:32:32.184Z,101150.63
2022-11-03T01:33:35.303Z,101144.28
2022-11-03T01:34:37.740Z,101133.63
2022-11-03T01:35:40.643Z,101145.75
2022-11-03T01:36:43.162Z,101137.59
2022-11-03T01:37:46.005Z,101139.25
2022-11-03T01:38:48.624Z,101126.78
2022-11-03T01:39:51.525Z,101131.91
2022-11-03T01:40:53.438Z,101130.91
2022-11-03T01:41:56.372Z,101129.06
2022-11-03T01:43:16.448Z,101115.56
2022-11-03T01:44:29.791Z,101121.75
2022-11-03T01:45:31.981Z,101107.41
2022-11-03T01:46:40.157Z,101111.75
2022-11-03T01:47:43.734Z,101111.75
2022-11-03T01:48:54.621Z,101108.91
2022-11-03T01:50:02.488Z,101112.38
2022-11-03T01:51:08.257Z,101112.19
2022-11-03T01:52:13.838Z,101114.84
2022-11-03T01:53:19.384Z,101112.84
2022-11-03T01:54:24.430Z,101112.66
2022-11-03T01:55:32.662Z,101104.50
2022-11-03T01:56:36.934Z,101108.00
2022-11-03T01:57:42.365Z,101102.47
2022-11-03T01:58:49.348Z,101107.81
2022-11-03T01:59:58.002Z,101090.84
2022-11-03T02:01:01.663Z,101090.84
2022-11-03T02:02:05.168Z,101090.84
2022-11-03T02:03:07.717Z,101085.50
2022-11-03T02:04:15.071Z,101083.66
2022-11-03T02:05:18.433Z,101088.00
2022-11-03T02:06:26.450Z,101080.81
2022-11-03T02:07:34.091Z,101087.81
2022-11-03T02:08:40.654Z,101084.31
2022-11-03T02:09:42.668Z,101086.78
2022-11-03T02:10:48.809Z,101097.44
2022-11-03T02:12:09.202Z,101087.63
2022-11-03T02:13:17.497Z,101100.09
2022-11-03T02:14:19.614Z,101105.44
2022-11-03T02:15:25.064Z,101108.09
2022-11-03T02:16:31.081Z,101099.13
2022-11-03T02:17:35.188Z,101091.13
2022-11-03T02:18:38.305Z,101097.25
2022-11-03T02:19:45.504Z,101094.59
2022-11-03T02:20:56.888Z,101093.78
2022-11-03T02:22:05.748Z,101086.59
2022-11-03T02:23:30.623Z,101088.47
2022-11-03T02:24:43.693Z,101087.44
2022-11-03T02:25:49.405Z,101086.78
2022-11-03T02:26:55.569Z,101087.44
2022-11-03T02:27:59.306Z,101088.97
2022-11-03T02:29:02.187Z,101076.59
2022-11-03T02:30:05.087Z,101071.28
2022-11-03T02:31:15.882Z,101071.09
2022-11-03T02:32:21.448Z,101064.78
2022-11-03T02:33:49.638Z,101062.75
2022-11-03T02:35:02.445Z,101057.25
2022-11-03T02:36:12.665Z,101051.94
2022-11-03T02:37:18.067Z,101047.22
2022-11-03T02:38:22.820Z,101038.16
2022-11-03T02:39:32.214Z,101048.91
2022-11-03T02:40:40.603Z,101043.75
2022-11-03T02:41:48.005Z,101054.06
2022-11-03T02:42:53.004Z,101053.06
2022-11-03T02:43:58.067Z,101051.03
2022-11-03T02:45:03.704Z,101055.34
2022-11-03T02:46:07.415Z,101051.69
2022-11-03T02:47:11.765Z,101057.84
2022-11-03T02:48:17.086Z,101047.00
2022-11-03T02:49:19.344Z,101032.91
2022-11-03T02:50:27.151Z,101042.50
2022-11-03T02:51:29.080Z,101036.97
2022-11-03T02:52:37.510Z,101039.63
2022-11-03T02:53:46.435Z,101037.81
2022-11-03T02:54:48.454Z,101048.28
2022-11-03T02:56:00.628Z,101036.63
2022-11-03T02:57:07.653Z,101036.63
2022-11-03T02:58:17.497Z,101035.63
2022-11-03T02:59:25.217Z,101030.28
2022-11-03T03:00:32.189Z,101028.47
2022-11-03T03:01:47.378Z,101018.59
2022-11-03T03:02:58.503Z,101017.63
2022-11-03T03:04:01.685Z,101019.44
2022-11-03T03:05:09.329Z,101018.59
2022-11-03T03:06:16.859Z,101018.44
2022-11-03T03:07:26.292Z,101014.75
2022-11-03T03:08:30.691Z,101013.91
2022-11-03T03:09:38.453Z,101006.75
2022-11-03T03:10:43.601Z,101015.94
2022-11-03T03:11:50.288Z,100999.59
2022-11-03T03:12:57.972Z,101004.94
2022-11-03T03:14:01.144Z,101006.56
2022-11-03T03:15:06.127Z,101004.09
2022-11-03T03:16:16.772Z,100997.47
2022-11-03T03:17:24.116Z,100996.22
2022-11-03T03:18:31.443Z,100985.63
2022-11-03T03:19:47.615Z,100986.00
2022-11-03T03:20:57.520Z,100992.97
2022-11-03T03:22:09.200Z,100956.56
2022-11-03T03:23:17.196Z,101007.31
2022-11-03T03:24:27.381Z,100997.66
2022-11-03T03:25:32.869Z,100996.03
2022-11-03T03:26:39.899Z,100997.00
2022-11-03T03:27:49.760Z,100994.72
2022-11-03T03:28:58.717Z,100991.88
2022-11-03T03:30:04.192Z,100995.75
2022-11-03T03:31:16.143Z,100989.75
2022-11-03T03:32:22.208Z,100985.47
2022-11-03T03:34:36.127Z,100991.94
2022-11-03T03:35:43.660Z,100991.09
2022-11-03T03:36:48.580Z,100992.31
2022-11-03T03:37:56.696Z,100997.34
2022-11-03T03:39:02.774Z,100989.00
2022-11-03T03:40:12.025Z,100991.84
2022-11-03T03:41:21.760Z,100993.84
2022-11-03T03:42:28.719Z,100984.22
2022-11-03T03:43:33.229Z,100989.53
2022-11-03T03:44:40.805Z,100979.06
2022-11-03T03:45:46.075Z,100979.25
2022-11-03T03:46:54.167Z,100974.13
2022-11-03T03:47:57.798Z,100978.78
2022-11-03T03:49:00.936Z,100974.47
2022-11-03T03:50:06.057Z,100974.66
2022-11-03T03:51:12.792Z,100975.00
2022-11-03T03:52:15.341Z,100977.50
2022-11-03T03:53:20.742Z,100979.31
2022-11-03T03:54:22.705Z,100979.31
2022-11-03T03:55:32.739Z,100974.19
2022-11-03T03:56:41.870Z,100976.84
2022-11-03T03:57:47.187Z,100974.38
2022-11-03T03:58:50.010Z,100971.69
2022-11-03T03:59:54.336Z,100977.03
2022-11-03T04:00:56.295Z,100969.03
2022-11-03T04:02:00.176Z,100965.56
2022-11-03T04:03:02.646Z,100979.69
2022-11-03T04:04:05.958Z,100969.88
2022-11-03T04:05:08.903Z,100972.53
2022-11-03T04:06:11.812Z,100967.03
2022-11-03T04:07:31.959Z,100970.53
2022-11-03T04:08:35.148Z,100972.16
2022-11-03T04:09:37.250Z,100969.50
2022-11-03T04:10:40.355Z,100966.66
2022-11-03T04:12:00.651Z,100959.69
2022-11-03T04:13:20.973Z,100964.00
2022-11-03T04:14:41.464Z,100965.84
2022-11-03T04:16:03.320Z,100956.84
2022-11-03T04:17:24.175Z,100963.00
2022-11-03T04:18:44.569Z,100951.69
2022-11-03T04:20:04.851Z,100957.69
2022-11-03T04:21:31.577Z,100946.38
2022-11-03T04:22:35.098Z,100947.03
2022-11-03T04:23:36.964Z,100951.50
2022-11-03T04:24:39.949Z,100955.00
2022-11-03T04:25:48.073Z,100955.00
2022-11-03T04:26:51.039Z,100950.22
2022-11-03T04:27:52.956Z,100959.31
2022-11-03T04:28:56.916Z,100957.69
2022-11-03T04:30:06.548Z,100959.31
2022-11-03T04:31:13.848Z,100957.69
2022-11-03T04:32:17.772Z,100949.03
2022-11-03T04:33:22.136Z,100950.50
2022-11-03T04:34:24.805Z,100960.16
2022-11-03T04:35:29.268Z,100960.16
2022-11-03T04:36:31.125Z,100958.28
2022-11-03T04:37:34.067Z,100956.47
2022-11-03T04:38:38.322Z,100958.13
2022-11-03T04:39:40.783Z,100958.75
2022-11-03T04:40:49.043Z,100954.28
2022-11-03T04:41:55.319Z,100960.44
2022-11-03T04:42:57.925Z,100958.56
2022-11-03T04:44:00.754Z,100950.59
2022-11-03T04:45:14.102Z,100954.91
2022-11-03T04:46:25.988Z,100954.91
2022-11-03T04:47:29.792Z,100951.22
2022-11-03T04:48:34.956Z,100948.56
2022-11-03T04:49:37.441Z,100942.25
2022-11-03T04:50:45.653Z,100950.25
2022-11-03T04:51:49.846Z,100946.56
2022-11-03T04:52:57.250Z,100940.94
2022-11-03T04:54:03.164Z,100947.19
2022-11-03T04:55:11.497Z,100947.19
2022-11-03T04:56:16.280Z,100954.34
2022-11-03T04:57:19.757Z,100948.84
2022-11-03T04:58:23.925Z,100947.19
2022-11-03T04:59:26.952Z,100949.69
2022-11-03T05:00:28.864Z,100949.69
2022-11-03T05:01:33.266Z,100939.03
2022-11-03T05:02:35.355Z,100945.19
2022-11-03T05:03:38.851Z,100931.22
2022-11-03T05:04:41.670Z,100935.34
2022-11-03T05:05:44.711Z,100937.81
2022-11-03T05:06:50.928Z,100945.81
2022-11-03T05:07:56.128Z,100940.47
2022-11-03T05:09:02.085Z,100942.34
2022-11-03T05:10:06.811Z,100940.47
2022-11-03T05:11:15.271Z,100936.84
2022-11-03T05:12:18.955Z,100943.97
2022-11-03T05:13:24.085Z,100937.81
2022-11-03T05:14:29.976Z,100939.66
2022-11-03T05:15:35.642Z,100894.09
2022-11-03T05:16:39.919Z,100924.38
2022-11-03T05:17:41.897Z,100929.69
2022-11-03T05:18:47.785Z,100930.50
2022-11-03T05:19:52.794Z,100924.38
2022-11-03T05:20:59.444Z,100927.03
2022-11-03T05:22:04.641Z,100926.19
2022-11-03T05:23:07.032Z,100930.50
2022-11-03T05:25:34.415Z,100923.88
2022-11-03T05:26:37.472Z,100923.53
2022-11-03T05:27:39.422Z,100920.00
2022-11-03T05:28:46.068Z,100916.69
2022-11-03T05:29:49.981Z,100920.00
2022-11-03T05:30:53.687Z,100918.38
2022-11-03T05:31:57.227Z,100920.19
2022-11-03T05:33:00.181Z,100913.22
2022-11-03T05:34:07.004Z,100906.22
2022-11-03T05:35:19.160Z,100907.06
2022-11-03T05:36:25.374Z,100907.91
2022-11-03T05:37:29.190Z,100908.69
2022-11-03T05:38:34.296Z,100906.88
2022-11-03T05:39:38.124Z,100902.28
2022-11-03T05:40:41.709Z,100897.59
2022-11-03T05:41:43.601Z,100912.38
2022-11-03T05:42:48.360Z,100911.56
2022-11-03T05:43:56.504Z,100907.25
2022-11-03T05:45:01.446Z,100904.59
2022-11-03T05:46:03.967Z,100896.78
2022-11-03T05:47:14.143Z,100895.94
2022-11-03T05:48:20.403Z,100902.09
2022-11-03T05:49:23.393Z,100895.09
2022-11-03T05:50:28.654Z,100890.63
2022-11-03T05:51:40.540Z,100895.94
2022-11-03T05:52:44.600Z,100894.13
2022-11-03T05:53:50.305Z,100895.94
2022-11-03T05:54:54.485Z,100892.25
2022-11-03T05:55:59.633Z,100891.25
2022-11-03T05:57:02.534Z,100893.94
2022-11-03T05:58:12.435Z,100889.78
2022-11-03T05:59:18.788Z,100890.25
2022-11-03T06:00:28.929Z,100885.75
2022-11-03T06:01:33.956Z,100875.66
2022-11-03T06:02:39.102Z,100876.91
2022-11-03T06:03:42.153Z,100869.69
2022-11-03T06:04:44.186Z,100887.38
2022-11-03T06:05:47.916Z,100878.59
2022-11-03T06:06:54.124Z,100881.25
2022-11-03T06:08:00.867Z,100875.94
2022-11-03T06:09:10.525Z,100880.22
2022-11-03T06:10:25.370Z,100872.25
2022-11-03T06:11:31.875Z,100876.72
2022-11-03T06:12:33.793Z,100870.16
2022-11-03T06:13:38.697Z,100875.94
2022-11-03T06:14:41.730Z,100874.91
2022-11-03T06:15:45.806Z,100870.25
2022-11-03T06:16:50.642Z,100873.75
2022-11-03T06:17:54.095Z,100872.72
2022-11-03T06:18:57.060Z,100879.69
2022-11-03T06:20:01.741Z,100869.88
2022-11-03T06:21:07.530Z,100866.38
2022-11-03T06:22:16.431Z,100863.38
2022-11-03T06:23:19.813Z,100868.69
2022-11-03T06:24:26.291Z,100870.53
2022-11-03T06:25:31.429Z,100864.16
2022-11-03T06:26:34.307Z,100869.50
2022-11-03T06:27:36.199Z,100864.16
2022-11-03T06:28:40.229Z,100865.84
2022-11-03T06:29:45.815Z,100863.19
2022-11-03T06:30:51.287Z,100861.31
2022-11-03T06:31:57.995Z,100864.63
2022-11-03T06:33:07.414Z,100860.13
2022-11-03T06:34:23.785Z,100849.47
2022-11-03T06:35:27.207Z,100856.44
2022-11-03T06:36:35.161Z,100859.09
2022-11-03T06:37:38.069Z,100856.44
2022-11-03T06:38:40.024Z,100853.59
2022-11-03T06:39:42.930Z,100853.41
2022-11-03T06:40:46.546Z,100851.56
2022-11-03T06:41:48.492Z,100848.72
2022-11-03T06:42:53.986Z,100850.38
2022-11-03T06:43:58.193Z,100849.34
2022-11-03T06:45:02.324Z,100856.72
2022-11-03T06:46:13.961Z,100851.00
2022-11-03T06:47:23.141Z,100851.63
2022-11-03T06:48:29.816Z,100847.97
2022-11-03T06:49:34.703Z,100844.28
2022-11-03T06:50:43.825Z,100849.22
2022-11-03T06:51:47.693Z,100853.75
2022-11-03T06:52:50.493Z,100847.22
2022-11-03T06:53:55.430Z,100851.53
2022-11-03T06:55:12.103Z,100841.50
2022-11-03T06:56:23.388Z,100836.81
2022-11-03T06:57:25.260Z,100845.44
2022-11-03T06:58:34.006Z,100846.09
2022-11-03T06:59:36.045Z,100844.03
2022-11-03T07:00:42.151Z,100837.06
2022-11-03T07:01:50.117Z,100841.63
2022-11-03T07:03:02.517Z,100814.41
2022-11-03T07:04:15.952Z,100841.88
2022-11-03T07:05:22.269Z,100838.22
2022-11-03T07:06:27.341Z,100833.28
2022-11-03T07:07:29.470Z,100837.84
2022-11-03T07:08:35.617Z,100832.31
2022-11-03T07:09:37.586Z,100834.78
2022-11-03T07:10:40.540Z,100839.94
2022-11-03T07:11:45.973Z,100831.31
2022-11-03T07:12:47.892Z,100842.03
2022-11-03T07:13:54.580Z,100837.72
2022-11-03T07:14:58.989Z,100840.63
2022-11-03T07:16:02.279Z,100837.75
2022-11-03T07:17:06.875Z,100834.91
2022-11-03T07:18:19.916Z,100839.88
2022-11-03T07:19:26.315Z,100834.75
2022-11-03T07:20:28.611Z,100841.13
2022-11-03T07:21:38.801Z,100835.53
2022-11-03T07:22:40.762Z,100837.06
2022-11-03T07:23:46.327Z,100837.91
2022-11-03T07:24:52.968Z,100839.16
2022-11-03T07:26:00.507Z,100835.50
2022-11-03T07:27:12.432Z,100825.44
2022-11-03T07:28:16.377Z,100829.56
2022-11-03T07:29:21.712Z,100827.53
2022-11-03T07:30:25.849Z,100831.84
2022-11-03T07:31:28.944Z,100827.16
2022-11-03T07:32:33.109Z,100826.94
2022-11-03T07:33:36.040Z,100827.16
2022-11-03T07:34:40.363Z,100825.72
2022-11-03T07:38:15.637Z,100831.50
2022-11-03T07:39:21.530Z,100804.72
2022-11-03T07:40:24.643Z,100825.81
2022-11-03T07:41:33.959Z,100832.78
2022-11-03T07:42:36.589Z,100824.56
2022-11-03T07:43:40.904Z,100827.88
2022-11-03T07:44:43.777Z,100814.53
2022-11-03T07:45:49.237Z,100804.25
2022-11-03T07:46:52.214Z,100816.81
2022-11-03T07:47:54.190Z,100812.31
2022-11-03T07:48:58.430Z,100813.09
2022-11-03T07:50:02.248Z,100818.09
2022-11-03T07:51:16.932Z,100818.88
2022-11-03T07:52:23.372Z,100817.69
2022-11-03T07:53:34.585Z,100817.47
2022-11-03T07:54:37.552Z,100812.78
2022-11-03T07:55:39.655Z,100817.91
2022-11-03T07:56:46.107Z,100814.84
2022-11-03T07:57:49.290Z,100811.97
2022-11-03T07:58:54.957Z,100813.47
2022-11-03T08:00:05.427Z,100812.41
2022-11-03T08:01:25.663Z,100809.56
2022-11-03T08:02:33.957Z,100792.09
2022-11-03T08:03:42.943Z,100797.47
2022-11-03T08:04:45.924Z,100805.91
2022-11-03T08:05:49.244Z,100796.88
2022-11-03T08:06:52.466Z,100799.34
2022-11-03T08:07:54.347Z,100791.97
2022-11-03T08:08:57.241Z,100784.78
2022-11-03T08:09:59.252Z,100788.06
2022-11-03T08:11:02.437Z,100782.34
2022-11-03T08:12:05.936Z,100782.94
2022-11-03T08:13:08.036Z,100780.28
2022-11-03T08:14:11.418Z,100776.41
2022-11-03T08:15:13.340Z,100782.59
2022-11-03T08:16:16.231Z,100784.84
2022-11-03T08:17:18.207Z,100781.13
2022-11-03T08:18:21.700Z,100778.47
2022-11-03T08:19:24.578Z,100779.72
2022-11-03T08:20:26.644Z,100779.53
2022-11-03T08:21:30.908Z,100780.38
2022-11-03T08:22:32.814Z,100779.13
2022-11-03T08:23:35.666Z,100777.28
2022-11-03T08:24:37.583Z,100779.56
2022-11-03T08:25:40.571Z,100780.19
2022-11-03T08:26:43.463Z,100779.97
2022-11-03T08:27:45.419Z,100780.19
2022-11-03T08:28:48.604Z,100774.88
2022-11-03T08:29:50.582Z,100778.16
2022-11-03T08:30:53.468Z,100770.34
2022-11-03T08:31:55.413Z,100770.19
2022-11-03T08:32:58.328Z,100770.00
2022-11-03T08:34:01.275Z,100772.47
2022-11-03T08:35:03.688Z,100766.72
2022-11-03T08:36:07.516Z,100770.00
2022-11-03T08:37:11.789Z,100767.97
2022-11-03T08:38:13.701Z,100759.75
2022-11-03T08:39:17.201Z,100765.72
2022-11-03T08:40:19.161Z,100763.69
2022-11-03T08:41:22.026Z,100760.59
2022-11-03T08:42:24.881Z,100763.91
2022-11-03T08:43:32.732Z,100766.38
2022-11-03T08:44:34.621Z,100763.28
2022-11-03T08:45:37.532Z,100754.84
2022-11-03T08:46:40.390Z,100759.19
2022-11-03T08:47:42.242Z,100757.94
2022-11-03T08:48:45.709Z,100752.19
2022-11-03T08:49:47.626Z,100762.28
2022-11-03T08:50:54.074Z,100760.22
2022-11-03T08:51:55.980Z,100763.50
2022-11-03T08:53:00.273Z,100754.06
2022-11-03T08:54:03.195Z,100753.84
2022-11-03T08:55:06.136Z,100761.47
2022-11-03T08:56:12.293Z,100745.41
2022-11-03T08:57:15.501Z,100758.78
2022-11-03T08:58:18.464Z,100747.88
2022-11-03T08:59:20.316Z,100750.97
2022-11-03T09:00:23.651Z,100748.91
2022-11-03T09:01:25.572Z,100738.00
2022-11-03T09:02:28.543Z,100745.63
2022-11-03T09:03:31.569Z,100737.19
2022-11-03T09:04:33.457Z,100728.97
2022-11-03T09:05:36.351Z,100730.19
2022-11-03T09:06:38.256Z,100731.66
2022-11-03T09:10:34.289Z,100732.84
2022-11-03T09:11:38.502Z,100724.44
2022-11-03T09:12:41.427Z,100725.63
2022-11-03T09:13:43.316Z,100723.59
2022-11-03T09:14:46.180Z,100729.34
2022-11-03T09:15:49.074Z,100721.94
2022-11-03T09:16:50.993Z,100724.41
2022-11-03T09:17:53.964Z,100739.00
2022-11-03T09:18:55.885Z,100727.06
2022-11-03T09:19:58.952Z,100728.47
2022-11-03T09:21:02.169Z,100725.41
2022-11-03T09:22:04.110Z,100723.09
2022-11-03T09:23:07.050Z,100723.50
2022-11-03T09:24:10.561Z,100726.59
2022-11-03T09:25:13.503Z,100716.50
2022-11-03T09:26:15.463Z,100720.19
2022-11-03T09:27:18.385Z,100712.78
2022-11-03T09:28:20.259Z,100710.69
2022-11-03T09:29:23.171Z,100708.63
2022-11-03T09:30:26.053Z,100726.38
2022-11-03T09:31:29.216Z,100705.31
2022-11-03T09:32:32.247Z,100714.81
2022-11-03T09:33:34.135Z,100718.13
2022-11-03T09:34:37.035Z,100717.69
2022-11-03T09:35:39.960Z,100719.31
2022-11-03T09:36:41.895Z,100712.72
2022-11-03T09:37:44.969Z,100706.13
2022-11-03T09:38:46.930Z,100705.72
2022-11-03T09:39:51.201Z,100712.69
2022-11-03T09:40:54.428Z,100720.31
2022-11-03T09:41:59.506Z,100715.56
2022-11-03T09:43:02.797Z,100708.94
2022-11-03T09:44:05.980Z,100713.06
2022-11-03T09:45:11.108Z,100710.38
2022-11-03T09:46:14.610Z,100719.66
2022-11-03T09:47:23.987Z,100709.53
2022-11-03T09:48:27.291Z,100710.97
2022-11-03T09:49:31.945Z,100719.63
2022-11-03T09:50:34.948Z,100709.28
2022-11-03T09:51:37.010Z,100702.88
2022-11-03T09:52:39.975Z,100706.97
2022-11-03T09:53:41.976Z,100702.22
2022-11-03T09:54:44.977Z,100704.69
2022-11-03T09:55:49.244Z,100697.25
2022-11-03T09:56:51.156Z,100694.38
2022-11-03T09:57:56.002Z,100698.50
2022-11-03T09:59:00.473Z,100691.06
2022-11-03T10:00:05.599Z,100692.69
2022-11-03T10:01:12.171Z,100692.47
2022-11-03T10:02:22.948Z,100690.41
2022-11-03T10:03:24.853Z,100689.13
2022-11-03T10:04:31.177Z,100678.44
2022-11-03T10:05:35.030Z,100688.50
2022-11-03T10:06:37.956Z,100685.59
2022-11-03T10:07:41.090Z,100693.81
2022-11-03T10:08:46.329Z,100681.03
2022-11-03T10:09:52.207Z,100683.88
2022-11-03T10:10:55.935Z,100677.69
2022-11-03T10:11:58.951Z,100675.59
2022-11-03T10:13:01.898Z,100684.22
2022-11-03T10:14:07.047Z,100674.31
2022-11-03T10:15:15.975Z,100667.94
2022-11-03T10:16:22.165Z,100675.16
2022-11-03T10:17:30.846Z,100679.69
2022-11-03T10:18:34.123Z,100675.16
2022-11-03T10:19:37.128Z,100672.47
2022-11-03T10:20:39.179Z,100675.16
2022-11-03T10:21:43.373Z,100676.00
2022-11-03T10:22:46.716Z,100672.25
2022-11-03T10:23:50.676Z,100673.09
2022-11-03T10:25:27.372Z,100673.66
2022-11-03T10:26:45.168Z,100659.72
2022-11-03T10:27:48.087Z,100671.38
2022-11-03T10:29:00.185Z,100673.81
2022-11-03T10:30:08.571Z,100674.66
2022-11-03T10:31:21.851Z,100668.84
2022-11-03T10:32:33.507Z,100662.47
2022-11-03T10:33:38.191Z,100663.06
2022-11-03T10:34:41.769Z,100664.69
2022-11-03T10:35:43.985Z,100658.88
2022-11-03T10:36:50.421Z,100661.13
2022-11-03T10:37:52.624Z,100671.44
2022-11-03T10:38:56.089Z,100667.47
2022-11-03T10:39:58.639Z,100667.03
2022-11-03T10:41:12.382Z,100656.06
2022-11-03T10:42:24.360Z,100652.97
2022-11-03T10:43:26.349Z,100660.59
2022-11-03T10:44:30.839Z,100664.09
2022-11-03T10:45:32.728Z,100657.44
2022-11-03T10:46:49.529Z,100652.06
2022-11-03T10:48:01.669Z,100648.78
2022-11-03T10:50:23.245Z,100650.00
2022-11-03T10:51:25.192Z,100646.03
2022-11-03T10:52:30.456Z,100653.06
2022-11-03T10:53:32.623Z,100651.00
2022-11-03T10:54:37.880Z,100647.25
2022-11-03T10:55:40.876Z,100645.81
2022-11-03T10:56:44.422Z,100634.59
2022-11-03T10:57:52.937Z,100637.69
2022-11-03T10:58:56.350Z,100637.22
2022-11-03T10:59:59.586Z,100618.44
2022-11-03T11:01:01.647Z,100622.88
2022-11-03T11:02:12.471Z,100630.50
2022-11-03T11:03:16.610Z,100619.31
2022-11-03T11:04:22.835Z,100619.91
2022-11-03T11:05:25.074Z,100617.34
2022-11-03T11:06:30.702Z,100620.19
2022-11-03T11:07:36.314Z,100621.38
2022-11-03T11:08:38.329Z,100623.38
2022-11-03T11:09:41.545Z,100613.00
2022-11-03T11:10:46.042Z,100608.84
2022-11-03T11:12:02.390Z,100614.59
2022-11-03T11:13:27.504Z,100610.38
2022-11-03T11:14:39.545Z,100615.88
2022-11-03T11:15:45.070Z,100611.94
2022-11-03T11:16:49.214Z,100604.47
2022-11-03T11:17:52.091Z,100604.00
2022-11-03T11:19:02.242Z,100591.59
2022-11-03T11:20:31.595Z,100601.84
2022-11-03T11:22:09.909Z,100597.38
2022-11-03T11:23:49.725Z,100600.22
2022-11-03T11:25:03.443Z,100593.69
2022-11-03T11:26:14.196Z,100590.31
2022-11-03T11:27:35.710Z,100589.84
2022-11-03T11:28:41.668Z,100584.03
2022-11-03T11:29:44.976Z,100588.94
2022-11-03T11:31:38.695Z,100581.47
2022-11-03T11:33:02.205Z,100576.44
2022-11-03T11:34:42.238Z,100575.16
2022-11-03T11:36:21.136Z,100568.50
2022-11-03T11:37:36.698Z,100569.09
2022-11-03T11:39:10.506Z,100565.38
2022-11-03T11:40:14.533Z,100563.28
2022-11-03T11:41:17.788Z,100562.22
2022-11-03T11:42:22.228Z,100560.09
2022-11-03T11:43:27.954Z,100555.53
2022-11-03T11:44:53.402Z,100550.97
2022-11-03T11:46:42.415Z,100553.44
2022-11-03T11:47:47.913Z,100557.19
2022-11-03T11:48:52.113Z,100538.47
2022-11-03T11:50:31.869Z,100554.72
2022-11-03T11:51:34.547Z,100554.72
2022-11-03T11:52:43.190Z,100543.13
2022-11-03T11:53:50.953Z,100539.63
2022-11-03T11:54:56.553Z,100546.66
2022-11-03T11:56:01.509Z,100546.91
2022-11-03T11:57:03.484Z,100537.75
2022-11-03T11:58:14.082Z,100539.84
2022-11-03T11:59:24.205Z,100539.06
2022-11-03T12:00:30.687Z,100545.25
2022-11-03T12:01:34.961Z,100537.16
2022-11-03T12:02:36.870Z,100536.13
2022-11-03T12:03:43.332Z,100495.63
2022-11-03T12:04:47.234Z,100528.84
2022-11-03T12:05:50.808Z,100522.31
2022-11-03T12:06:53.929Z,100519.75
2022-11-03T12:07:56.296Z,100512.47
2022-11-03T12:09:06.697Z,100509.78
2022-11-03T12:10:08.947Z,100508.75
2022-11-03T12:11:13.609Z,100518.44
2022-11-03T12:12:34.475Z,100509.34
2022-11-03T12:13:49.037Z,100507.69
2022-11-03T12:14:51.991Z,100498.59
2022-11-03T12:15:58.217Z,100502.91
2022-11-03T12:17:33.969Z,100501.28
2022-11-03T12:18:40.726Z,100513.06
2022-11-03T12:19:46.160Z,100493.22
2022-11-03T12:20:48.151Z,100495.91
2022-11-03T12:21:51.976Z,100494.00
2022-11-03T12:22:54.870Z,100486.16
2022-11-03T12:23:56.779Z,100482.69
2022-11-03T12:25:00.843Z,100480.00
2022-11-03T12:26:04.294Z,100481.03
2022-11-03T12:27:20.499Z,100476.94
2022-11-03T12:28:32.281Z,100472.38
2022-11-03T12:29:34.190Z,100471.56
2022-11-03T12:30:40.104Z,100461.59
2022-11-03T12:31:44.712Z,100465.97
2022-11-03T12:32:46.977Z,100460.34
2022-11-03T12:33:49.898Z,100458.22
2022-11-03T12:34:53.806Z,100455.31
2022-11-03T12:35:57.156Z,100458.09
2022-11-03T12:36:59.087Z,100456.81
2022-11-03T12:38:02.124Z,100457.97
2022-11-03T12:39:05.031Z,100446.38
2022-11-03T12:40:07.823Z,100459.72
2022-11-03T12:41:22.603Z,100440.38
2022-11-03T12:42:25.436Z,100439.09
2022-11-03T12:43:28.480Z,100444.84